Fort Yukon Airport
PFYU : now visible

Airfield :











YOU CAN JOIN US ON...

 
LOGIN :

Register | Disclaimer

   EN    FR    IT 

 









Legend :    VFR   Marginal VFR   IFR   Intensive IFR   Very Intensive IFR
Visi :
Ceiling :
>= 8 km
>= 3000ft
5 to 8 km
1000 to 3000 ft
1500m to 5 km
500 to 1000 ft
800 to 1500m
200 to 500 ft
< 800m
< 200 ft
Symbols :   Thunderstorms  Fog  Heavy snow  Heavy precipitations  Wind > 20 kt






- Airport Elevation : 433 ft
- IATA code : FYU


PFYU - Fort Yukon

CURRENT METAR :
  • 151756Z 00000KT 1 1/2SM BR OVC003 M27/M29 A2993 RMK AO2 VIS 3/4V5 SLP163 6//// T12671289 11256 21267 55000

EXPIRED METARs :
  • 151656Z 00000KT 9SM OVC005 M26/M29 A2993 RMK AO2 SLP162 T12611289
  • 151643Z 00000KT 2SM HZ OVC005 M26/M29 A2993 RMK AO2 VIS 1V5
  • 151556Z 00000KT 9SM OVC005 M26/M29 A2994 RMK AO2 SLP164 T12611289
  • 151512Z AUTO 00000KT 4SM BR OVC005 M26/M28 A2993 RMK AO2 FZRANO

TAF N/A



MET'MAP, your aeronautical weather chart ! - Copyright ORBIFLY December 2007 - Disclaimer

ORBIFLY MET'MAP TEAM :

Programming & Development : Alexandra Zaïnal
Concept & original design : Baudouin d'Aumeries
Assistance for programming : Marc-Olivier Méhu
Technical & hardware support : Manuel Goepfert

Contact : metmap@orbifly.com




SOURCES & CREDITS :

   NOAA       Earth
Advisory